Time;durP1;ratioP1;P1;durP2;ratioP2;P2;SDS_P1;SDS_P2;PMS_P1;PMS_P2;Temp;Humidity;BMP_temperature;BMP_pressure;BME280_temperature;BME280_humidity;BME280_pressure;Samples;Min_cycle;Max_cycle;Signal;HPM_P1;HPM_P2
2022/08/29 00:02:04;;;;;;;0.10;0.10;;;19.40;99.90;;;;;;4842983;29;20037;-75
2022/08/29 00:04:30;;;;;;;0.00;0.00;;;;;;;;;;4873069;29;20113;-74
2022/08/29 00:07:02;;;;;;;0.30;0.30;;;;;;;;;;4883697;29;20086;-78
2022/08/29 00:09:44;;;;;;;0.03;0.03;;;18.30;99.90;;;;;;4892435;29;20029;-74
2022/08/29 00:12:50;;;;;;;0.00;0.00;;;18.50;99.90;;;;;;4937852;29;20028;-78
2022/08/29 00:15:37;;;;;;;0.20;0.20;;;18.60;99.90;;;;;;4935914;29;20313;-77
2022/08/29 00:18:07;;;;;;;0.10;0.10;;;20.70;99.90;;;;;;4915694;29;20051;-76
2022/08/29 00:20:34;;;;;;;0.10;0.10;;;18.20;99.90;;;;;;4923131;29;20044;-76
2022/08/29 00:23:21;;;;;;;0.10;0.10;;;18.10;99.90;;;;;;4903185;29;20223;-76
2022/08/29 00:26:16;;;;;;;0.10;0.10;;;18.10;99.90;;;;;;4915643;29;20134;-78
2022/08/29 00:29:16;;;;;;;0.00;0.00;;;18.30;99.90;;;;;;4925455;29;20127;-77
2022/08/29 00:32:14;;;;;;;0.10;0.10;;;18.90;99.90;;;;;;4856945;29;20029;-78
2022/08/29 00:35:39;;;;;;;0.00;0.00;;;18.40;99.90;;;;;;4844028;29;20090;-75
2022/08/29 00:38:13;;;;;;;0.10;0.10;;;18.60;99.90;;;;;;4806361;29;20532;-77
2022/08/29 00:40:59;;;;;;;;;;;18.50;99.90;;;;;;4837612;29;20030;-79
2022/08/29 00:43:36;;;;;;;0.10;0.10;;;18.70;99.90;;;;;;4839192;29;19909;-79
2022/08/29 00:46:30;;;;;;;0.13;0.13;;;19.30;99.90;;;;;;4858982;29;20178;-76
2022/08/29 00:49:05;;;;;;;0.10;0.10;;;19.60;99.90;;;;;;4856402;29;20237;-76
2022/08/29 00:52:02;;;;;;;0.45;0.45;;;19.30;99.90;;;;;;4850211;29;20037;-76
2022/08/29 00:54:30;;;;;;;0.95;0.90;;;19.30;99.90;;;;;;4839778;29;20597;-77
2022/08/29 00:57:13;;;;;;;0.03;0.03;;;20.10;99.90;;;;;;4843060;29;20038;-76
2022/08/29 00:59:54;;;;;;;0.00;0.00;;;20.40;99.90;;;;;;4858499;29;20064;-76
2022/08/29 01:02:23;;;;;;;0.00;0.00;;;;;;;;;;4859093;29;20267;-76
2022/08/29 01:04:50;;;;;;;0.10;0.10;;;20.80;99.90;;;;;;4859343;29;20053;-76
2022/08/29 01:09:59;;;;;;;0.00;0.00;;;21.10;99.90;;;;;;4862519;27;20059;-77
2022/08/29 01:12:45;;;;;;;0.10;0.10;;;21.00;99.90;;;;;;4933552;29;20024;-77
2022/08/29 01:15:27;;;;;;;0.32;0.30;;;21.80;99.90;;;;;;4918118;29;20016;-77
2022/08/29 01:17:55;;;;;;;0.10;0.10;;;21.40;99.90;;;;;;4936114;29;20024;-76
2022/08/29 01:20:58;;;;;;;0.10;0.10;;;21.90;99.90;;;;;;4937450;29;20051;-76
2022/08/29 01:23:57;;;;;;;0.10;0.10;;;22.40;99.90;;;;;;4938861;29;20016;-77
2022/08/29 01:26:34;;;;;;;0.20;0.20;;;23.00;99.90;;;;;;4919914;29;20092;-76
2022/08/29 01:29:00;;;;;;;0.05;0.05;;;21.30;99.90;;;;;;4929627;29;20044;-76
2022/08/29 01:31:39;;;;;;;1.65;1.55;;;21.30;99.90;;;;;;4913328;29;20032;-76
2022/08/29 01:34:06;;;;;;;1.40;1.30;;;20.80;99.90;;;;;;4931142;29;20096;-80
2022/08/29 01:37:06;;;;;;;0.10;0.10;;;20.10;99.90;;;;;;4933548;29;20024;-76
2022/08/29 01:39:53;;;;;;;0.47;0.47;;;20.50;99.90;;;;;;4932193;29;20407;-77
2022/08/29 01:42:56;;;;;;;0.05;0.05;;;20.30;99.90;;;;;;4931925;29;20035;-80
2022/08/29 01:46:09;;;;;;;0.10;0.10;;;20.60;99.90;;;;;;4932089;29;20044;-80
2022/08/29 01:48:45;;;;;;;0.03;0.03;;;20.40;99.90;;;;;;4916137;29;20102;-76
2022/08/29 01:51:17;;;;;;;0.75;0.75;;;19.90;99.90;;;;;;4917310;29;20032;-78
2022/08/29 01:53:48;;;;;;;0.08;0.08;;;19.80;99.90;;;;;;4932576;29;20326;-78
2022/08/29 01:56:28;;;;;;;0.00;0.00;;;19.30;99.90;;;;;;4924305;29;20036;-76
2022/08/29 01:58:57;;;;;;;0.00;0.00;;;19.60;99.90;;;;;;4916791;29;20032;-84
2022/08/29 02:01:33;;;;;;;2.00;1.95;;;20.00;99.90;;;;;;4934733;29;20105;-76
2022/08/29 02:04:02;;;;;;;0.03;0.03;;;20.60;99.90;;;;;;4933046;29;20117;-77
2022/08/29 02:06:34;;;;;;;0.17;0.17;;;20.80;99.90;;;;;;4934350;29;20020;-77
2022/08/29 02:09:07;;;;;;;0.10;0.10;;;20.90;99.90;;;;;;4927332;29;20048;-76
2022/08/29 02:11:47;;;;;;;0.75;0.63;;;18.20;99.90;;;;;;4916924;29;20044;-77
2022/08/29 02:14:45;;;;;;;0.30;0.30;;;20.80;99.90;;;;;;4934739;29;20012;-77
2022/08/29 02:17:21;;;;;;;0.10;0.10;;;20.60;99.90;;;;;;4905614;29;20443;-76
2022/08/29 02:19:47;;;;;;;0.00;0.00;;;;;;;;;;4930651;29;20187;-76
2022/08/29 02:22:39;;;;;;;1.30;1.25;;;20.10;99.90;;;;;;4916049;29;20115;-75
2022/08/29 02:25:42;;;;;;;0.08;0.08;;;22.90;99.90;;;;;;4893414;29;20037;-77
2022/08/29 02:28:15;;;;;;;1.55;1.45;;;21.20;99.90;;;;;;4890171;29;20041;-76
2022/08/29 02:31:26;;;;;;;0.22;0.22;;;21.20;99.90;;;;;;4887757;29;20029;-77
2022/08/29 02:33:52;;;;;;;0.00;0.00;;;21.20;99.90;;;;;;4821051;29;20034;-77
2022/08/29 02:36:40;;;;;;;0.10;0.10;;;21.30;99.90;;;;;;4821554;29;20079;-77
2022/08/29 02:39:33;;;;;;;55.70;4.95;;;21.10;99.90;;;;;;4838229;29;20050;-75
2022/08/29 02:42:00;;;;;;;0.52;0.52;;;21.20;99.90;;;;;;4820553;29;20105;-77
2022/08/29 02:44:46;;;;;;;0.10;0.10;;;;;;;;;;4834990;29;20050;-79
2022/08/29 02:47:35;;;;;;;0.10;0.10;;;20.70;99.90;;;;;;4835371;29;20027;-76
2022/08/29 02:50:11;;;;;;;0.10;0.10;;;20.70;99.90;;;;;;4822058;29;20047;-76
2022/08/29 02:52:40;;;;;;;0.15;0.15;;;20.90;99.90;;;;;;4840546;29;20030;-76
2022/08/29 02:55:32;;;;;;;0.20;0.20;;;23.20;99.90;;;;;;4843257;29;20145;-76
2022/08/29 02:58:03;;;;;;;0.10;0.10;;;20.50;99.90;;;;;;4853409;29;20525;-83
2022/08/29 03:00:53;;;;;;;0.20;0.20;;;20.30;99.90;;;;;;4870257;29;20097;-78
2022/08/29 03:03:20;;;;;;;1.17;1.17;;;21.10;99.90;;;;;;4842055;29;20526;-82
2022/08/29 03:05:54;;;;;;;0.63;0.63;;;20.70;99.90;;;;;;4836610;29;20030;-82
2022/08/29 03:08:20;;;;;;;0.10;0.10;;;20.70;99.90;;;;;;4853706;29;20588;-83
2022/08/29 03:10:47;;;;;;;0.10;0.10;;;20.80;99.90;;;;;;4865202;29;20033;-89
2022/08/29 03:13:45;;;;;;;0.10;0.10;;;20.60;99.90;;;;;;4874878;29;20029;-76
2022/08/29 03:16:47;;;;;;;0.10;0.10;;;19.70;99.90;;;;;;4862043;29;20078;-76
2022/08/29 03:19:25;;;;;;;0.10;0.10;;;18.90;99.90;;;;;;4863632;29;20037;-89
2022/08/29 03:21:59;;;;;;;0.10;0.10;;;19.20;99.90;;;;;;4873867;29;20030;-75
2022/08/29 03:24:26;;;;;;;0.00;0.00;;;19.10;99.90;;;;;;4896317;29;20041;-87
2022/08/29 03:26:51;;;;;;;0.30;0.30;;;19.70;99.90;;;;;;4905973;29;20535;-82
2022/08/29 03:29:17;;;;;;;0.10;0.10;;;19.80;99.90;;;;;;4887223;29;20124;-89
2022/08/29 03:31:48;;;;;;;0.22;0.22;;;19.90;99.90;;;;;;4898874;29;20085;-83
2022/08/29 03:34:14;;;;;;;0.10;0.10;;;19.70;99.90;;;;;;4887850;29;20197;-86
2022/08/29 03:36:43;;;;;;;0.10;0.10;;;20.10;99.90;;;;;;4875381;29;20511;-95
2022/08/29 03:39:21;;;;;;;0.10;0.10;;;20.10;99.90;;;;;;4881734;29;20037;-84
2022/08/29 03:41:52;;;;;;;3.97;3.60;;;20.50;99.90;;;;;;4891298;29;20028;-78
2022/08/29 03:44:23;;;;;;;0.10;0.10;;;20.60;99.90;;;;;;4906917;29;20096;-80
2022/08/29 03:46:55;;;;;;;0.10;0.10;;;;;;;;;;4891237;29;20029;-78
2022/08/29 03:49:36;;;;;;;0.00;0.00;;;20.40;99.90;;;;;;4911193;29;20056;-81
2022/08/29 03:52:36;;;;;;;1.40;1.30;;;20.70;99.90;;;;;;4893290;29;20419;-87
2022/08/29 03:55:20;;;;;;;0.10;0.10;;;20.50;99.90;;;;;;4889434;29;20033;-82
2022/08/29 03:57:48;;;;;;;0.00;0.00;;;20.30;99.90;;;;;;4838173;29;20470;-82
2022/08/29 04:00:38;;;;;;;0.10;0.10;;;20.70;99.90;;;;;;4870850;29;20318;-81
2022/08/29 04:03:16;;;;;;;0.20;0.20;;;20.40;99.90;;;;;;4883832;29;20044;-92
2022/08/29 04:05:44;;;;;;;0.10;0.10;;;20.70;99.90;;;;;;4875777;29;20057;-86
2022/08/29 04:08:16;;;;;;;0.05;0.05;;;;;;;;;;4882574;29;20181;-79
2022/08/29 04:11:51;;;;;;;0.10;0.10;;;19.90;99.90;;;;;;4910446;29;20036;-78
2022/08/29 04:14:28;;;;;;;;;;;20.20;99.90;;;;;;4910726;29;20077;-88
2022/08/29 04:17:21;;;;;;;0.10;0.10;;;19.80;99.90;;;;;;4897290;29;19915;-78
2022/08/29 04:19:47;;;;;;;0.10;0.10;;;23.00;99.90;;;;;;4904094;29;20115;-79
2022/08/29 04:24:48;;;;;;;0.10;0.10;;;19.70;99.90;;;;;;4924496;29;20048;-78
2022/08/29 04:27:35;;;;;;;0.08;0.08;;;20.40;99.90;;;;;;4917679;29;20036;-83
2022/08/29 04:30:27;;;;;;;0.80;0.80;;;19.60;99.90;;;;;;4905631;29;20063;-78
2022/08/29 04:33:10;;;;;;;0.15;0.15;;;19.60;99.90;;;;;;4876827;29;20386;-78
2022/08/29 04:35:43;;;;;;;0.00;0.00;;;20.40;99.90;;;;;;4896053;29;20043;-78
2022/08/29 04:38:09;;;;;;;0.08;0.08;;;22.00;99.90;;;;;;4889099;29;20184;-79
2022/08/29 04:40:41;;;;;;;0.15;0.15;;;20.20;99.90;;;;;;4908910;29;20064;-78
2022/08/29 04:43:13;;;;;;;0.95;0.95;;;20.70;99.90;;;;;;4895204;29;20331;-78
2022/08/29 04:45:56;;;;;;;0.10;0.10;;;20.60;99.90;;;;;;4889630;29;20036;-79
2022/08/29 04:48:25;;;;;;;0.03;0.03;;;20.40;99.90;;;;;;4901412;29;20284;-82
2022/08/29 04:51:01;;;;;;;0.10;0.10;;;20.60;99.90;;;;;;4901147;29;20037;-80
2022/08/29 04:53:27;;;;;;;0.08;0.08;;;19.50;99.90;;;;;;4882499;29;20044;-81
2022/08/29 04:56:07;;;;;;;0.10;0.10;;;20.80;99.90;;;;;;4892094;29;20101;-83
2022/08/29 04:58:42;;;;;;;0.00;0.00;;;19.90;99.90;;;;;;4905416;29;20028;-90
2022/08/29 05:01:17;;;;;;;0.00;0.00;;;20.60;99.90;;;;;;4892056;29;20059;-81
2022/08/29 05:03:54;;;;;;;0.20;0.20;;;20.80;99.90;;;;;;4902494;29;20040;-79
2022/08/29 05:06:21;;;;;;;0.10;0.10;;;20.30;99.90;;;;;;4904378;29;20386;-86
2022/08/29 05:09:11;;;;;;;0.20;0.20;;;20.50;99.90;;;;;;4904533;29;20073;-84
2022/08/29 05:11:52;;;;;;;0.10;0.10;;;19.70;99.90;;;;;;4907829;29;20068;-79
2022/08/29 05:14:22;;;;;;;0.00;0.00;;;20.00;99.90;;;;;;4909828;29;20032;-89
2022/08/29 05:16:53;;;;;;;0.10;0.10;;;20.20;99.90;;;;;;4878357;29;20041;-80
2022/08/29 05:19:24;;;;;;;0.10;0.10;;;20.40;99.90;;;;;;4879039;29;20036;-84
2022/08/29 05:21:56;;;;;;;0.10;0.10;;;;;;;;;;4865695;29;20081;-81
2022/08/29 05:24:33;;;;;;;0.10;0.10;;;20.60;99.90;;;;;;4918949;29;20074;-86
2022/08/29 05:27:08;;;;;;;3.15;3.00;;;21.00;99.90;;;;;;4920453;29;20032;-76
2022/08/29 05:29:45;;;;;;;0.00;0.00;;;21.40;99.90;;;;;;4916059;29;20040;-78
2022/08/29 05:32:18;;;;;;;0.03;0.03;;;21.40;99.90;;;;;;4926603;23;20048;-80
2022/08/29 05:34:58;;;;;;;0.10;0.10;;;19.60;99.90;;;;;;4908496;29;20044;-79
2022/08/29 05:37:33;;;;;;;0.10;0.10;;;21.20;99.90;;;;;;4923896;29;20029;-80
2022/08/29 05:40:10;;;;;;;1.15;1.05;;;19.70;99.90;;;;;;4927454;29;20606;-80
2022/08/29 05:42:39;;;;;;;0.40;0.40;;;21.20;99.90;;;;;;4928567;29;20031;-80
2022/08/29 05:45:25;;;;;;;0.08;0.08;;;21.20;99.90;;;;;;4895414;29;20024;-78
2022/08/29 05:47:55;;;;;;;0.10;0.10;;;21.10;99.90;;;;;;4905545;29;20032;-80
2022/08/29 05:50:27;;;;;;;0.10;0.10;;;21.20;99.90;;;;;;4910916;29;20038;-79
2022/08/29 05:53:04;;;;;;;0.10;0.10;;;19.80;99.90;;;;;;4908261;29;20484;-79
2022/08/29 05:55:33;;;;;;;0.10;0.10;;;;;;;;;;4911299;29;20027;-79
2022/08/29 05:58:12;;;;;;;0.10;0.10;;;21.30;99.90;;;;;;4885427;29;20044;-80
2022/08/29 06:00:44;;;;;;;1.85;1.75;;;22.30;99.90;;;;;;4866501;29;20182;-78
2022/08/29 06:03:12;;;;;;;0.10;0.10;;;21.70;99.90;;;;;;4866535;29;20033;-88
2022/08/29 06:05:58;;;;;;;0.63;0.63;;;20.70;99.90;;;;;;4884057;29;20085;-87
2022/08/29 06:08:24;;;;;;;0.00;0.00;;;20.40;99.90;;;;;;4901534;23;20088;-84
2022/08/29 06:10:50;;;;;;;0.47;0.45;;;;;;;;;;4904697;29;20028;-84
2022/08/29 06:13:23;;;;;;;0.50;0.50;;;19.30;99.90;;;;;;4917758;29;20032;-82
2022/08/29 06:15:49;;;;;;;0.00;0.00;;;;;;;;;;4908000;29;20115;-83
2022/08/29 06:18:17;;;;;;;0.17;0.17;;;18.90;99.90;;;;;;4899747;29;20024;-79
2022/08/29 06:20:46;;;;;;;0.10;0.10;;;17.20;99.90;;;;;;4920725;29;20519;-79
2022/08/29 06:24:02;;;;;;;0.10;0.10;;;18.70;99.90;;;;;;4932828;29;20067;-81
2022/08/29 06:26:30;;;;;;;0.10;0.10;;;18.50;99.90;;;;;;4915130;29;20036;-79
2022/08/29 06:28:59;;;;;;;0.20;0.20;;;18.60;99.90;;;;;;4929953;29;20056;-91
2022/08/29 06:31:31;;;;;;;0.10;0.10;;;18.60;99.90;;;;;;4910360;29;20032;-79
2022/08/29 06:34:03;;;;;;;0.00;0.00;;;17.10;99.90;;;;;;4900909;29;20111;-79
2022/08/29 06:36:57;;;;;;;0.20;0.20;;;18.80;99.90;;;;;;4930731;29;20042;-79
2022/08/29 06:39:27;;;;;;;0.00;0.00;;;15.80;99.90;;;;;;4933839;29;20032;-79
2022/08/29 06:41:56;;;;;;;0.35;0.20;;;16.40;99.90;;;;;;4906485;29;20123;-88
2022/08/29 06:44:23;;;;;;;0.13;0.13;;;14.80;99.90;;;;;;4874875;29;20028;-93
2022/08/29 06:47:00;;;;;;;1.25;0.52;;;18.80;99.90;;;;;;4924024;29;20137;-78
2022/08/29 06:49:36;;;;;;;0.20;0.20;;;18.20;99.90;;;;;;4910682;29;20036;-78
2022/08/29 06:52:12;;;;;;;0.10;0.10;;;19.60;99.90;;;;;;4926184;29;20246;-80
2022/08/29 06:54:38;;;;;;;0.20;0.20;;;19.80;99.90;;;;;;4923818;29;20131;-87
2022/08/29 06:57:04;;;;;;;0.28;0.28;;;;;;;;;;4898603;29;20071;-80
2022/08/29 06:59:37;;;;;;;0.65;0.65;;;20.00;99.90;;;;;;4899000;29;20025;-78
2022/08/29 07:02:05;;;;;;;0.10;0.10;;;;;;;;;;4904714;29;20704;-79
2022/08/29 07:04:37;;;;;;;0.10;0.10;;;20.70;99.90;;;;;;4918430;29;20028;-89
2022/08/29 07:07:05;;;;;;;0.10;0.10;;;20.90;99.90;;;;;;4899764;29;20024;-85
2022/08/29 07:09:31;;;;;;;0.68;0.68;;;20.90;99.90;;;;;;4919295;29;20039;-83
2022/08/29 07:11:59;;;;;;;0.10;0.10;;;21.50;99.90;;;;;;4919200;29;20024;-77
2022/08/29 07:14:31;;;;;;;0.10;0.10;;;21.10;99.90;;;;;;4905461;29;20036;-82
2022/08/29 07:16:57;;;;;;;0.00;0.00;;;21.60;99.90;;;;;;4918934;29;20024;-83
2022/08/29 07:19:26;;;;;;;1.08;1.08;;;22.90;99.90;;;;;;4900926;23;20085;-77
2022/08/29 07:22:05;;;;;;;0.95;0.95;;;21.00;99.90;;;;;;4884828;29;20036;-80
2022/08/29 07:25:14;;;;;;;0.05;0.05;;;20.90;99.90;;;;;;4900297;29;20040;-79
2022/08/29 07:28:04;;;;;;;0.10;0.10;;;21.60;99.90;;;;;;4828420;29;20053;-81
2022/08/29 07:30:46;;;;;;;0.20;0.20;;;21.20;99.90;;;;;;4846675;29;20064;-85
2022/08/29 07:33:30;;;;;;;0.15;0.15;;;21.10;99.90;;;;;;4830106;29;20038;-93
2022/08/29 07:36:26;;;;;;;0.20;0.20;;;21.30;99.90;;;;;;4849319;29;20026;-80
2022/08/29 07:39:11;;;;;;;0.10;0.10;;;21.90;99.90;;;;;;4806512;29;20037;-81
2022/08/29 07:41:39;;;;;;;0.40;0.40;;;21.40;99.90;;;;;;4829609;29;20505;-89
2022/08/29 07:44:07;;;;;;;0.10;0.10;;;21.60;99.90;;;;;;4826105;29;20105;-95
2022/08/29 07:46:36;;;;;;;0.00;0.00;;;21.50;99.90;;;;;;4844482;29;20143;-81
2022/08/29 07:49:06;;;;;;;0.20;0.20;;;21.60;99.90;;;;;;4825295;29;20095;-82
2022/08/29 07:51:39;;;;;;;0.05;0.05;;;21.80;99.90;;;;;;4833572;29;20050;-80
2022/08/29 07:54:07;;;;;;;0.03;0.03;;;22.30;99.90;;;;;;4832124;29;20034;-86
2022/08/29 07:56:58;;;;;;;0.10;0.10;;;21.80;99.90;;;;;;4854861;29;20041;-81
2022/08/29 07:59:25;;;;;;;0.10;0.10;;;20.40;99.90;;;;;;4903908;29;20028;-83
2022/08/29 08:01:52;;;;;;;0.10;0.10;;;22.40;99.90;;;;;;4888549;29;20028;-83
2022/08/29 08:04:23;;;;;;;0.38;0.38;;;22.90;99.90;;;;;;4885922;29;20031;-86
2022/08/29 08:07:15;;;;;;;0.20;0.20;;;22.80;99.90;;;;;;4903105;29;20056;-77
2022/08/29 08:10:04;;;;;;;0.85;0.85;;;23.00;99.90;;;;;;4903577;29;20539;-89
2022/08/29 08:12:42;;;;;;;0.03;0.03;;;22.90;99.90;;;;;;4891694;29;20159;-80
2022/08/29 08:15:21;;;;;;;0.15;0.15;;;23.10;99.90;;;;;;4881705;29;20117;-79
2022/08/29 08:17:47;;;;;;;0.10;0.10;;;;;;;;;;4883617;29;20040;-78
2022/08/29 08:20:15;;;;;;;0.03;0.03;;;23.20;99.90;;;;;;4859031;29;20076;-79
2022/08/29 08:22:47;;;;;;;0.10;0.10;;;;;;;;;;4877184;29;20781;-79
2022/08/29 08:25:22;;;;;;;0.00;0.00;;;23.50;99.90;;;;;;4853352;29;20124;-80
2022/08/29 08:27:48;;;;;;;0.10;0.10;;;23.60;99.90;;;;;;4857544;29;20024;-80
2022/08/29 08:30:17;;;;;;;0.17;0.17;;;24.30;99.90;;;;;;4858408;29;20061;-78
2022/08/29 08:32:50;;;;;;;0.03;0.03;;;24.00;99.90;;;;;;4880045;29;20099;-87
2022/08/29 08:35:27;;;;;;;0.68;0.68;;;23.10;99.90;;;;;;4858777;29;20033;-86
2022/08/29 08:38:12;;;;;;;0.10;0.10;;;24.10;99.90;;;;;;4866600;29;20045;-90
2022/08/29 08:41:28;;;;;;;0.60;0.43;;;24.40;99.90;;;;;;4831056;29;20033;-80
2022/08/29 08:44:33;;;;;;;0.10;0.10;;;21.80;99.60;;;;;;4912766;23;20056;-79
2022/08/29 08:47:11;;;;;;;1.83;1.75;;;24.60;99.90;;;;;;4909370;29;20029;-82
2022/08/29 08:50:06;;;;;;;9.85;1.02;;;24.50;99.90;;;;;;4932656;29;20068;-80
2022/08/29 08:53:09;;;;;;;0.55;0.55;;;24.40;99.50;;;;;;4915763;29;20036;-79
2022/08/29 08:56:07;;;;;;;0.17;0.17;;;25.10;99.10;;;;;;4887871;29;20020;-79
2022/08/29 08:58:59;;;;;;;0.03;0.03;;;25.70;98.90;;;;;;4885529;29;20036;-96
2022/08/29 09:01:45;;;;;;;0.22;0.22;;;25.60;99.30;;;;;;4906014;29;20036;-78
2022/08/29 09:04:28;;;;;;;0.85;0.85;;;25.30;98.80;;;;;;4922833;29;20271;-79
2022/08/29 09:07:56;;;;;;;0.00;0.00;;;25.80;98.40;;;;;;4912785;29;20029;-78
2022/08/29 09:11:28;;;;;;;0.20;0.20;;;27.00;99.00;;;;;;4893266;29;20037;-81
2022/08/29 09:14:16;;;;;;;0.75;0.57;;;25.50;98.00;;;;;;4894006;29;20025;-78
2022/08/29 09:17:41;;;;;;;0.20;0.20;;;25.90;97.60;;;;;;4905117;29;20031;-78
2022/08/29 09:23:29;;;;;;;0.10;0.10;;;28.70;97.60;;;;;;4896969;29;20051;-91
2022/08/29 09:26:27;;;;;;;0.00;0.00;;;26.40;97.20;;;;;;4897562;29;20049;-79
2022/08/29 09:29:10;;;;;;;0.43;0.35;;;27.20;97.50;;;;;;4860501;29;20026;-79
2022/08/29 09:32:24;;;;;;;;;;;;;;;;;;;;;
2022/08/29 09:35:26;;;;;;;0.10;0.10;;;28.00;98.80;;;;;;4868017;29;20137;-77
2022/08/29 09:38:22;;;;;;;0.10;0.10;;;26.50;97.90;;;;;;4838527;29;20057;-78
2022/08/29 09:41:27;;;;;;;0.10;0.10;;;25.70;97.80;;;;;;4877166;29;20022;-77
2022/08/29 09:43:58;;;;;;;0.00;0.00;;;27.30;98.00;;;;;;4872714;29;20059;-78
2022/08/29 09:46:41;;;;;;;4.65;4.32;;;27.20;98.50;;;;;;4859110;29;20034;-78
2022/08/29 09:49:45;;;;;;;0.20;0.20;;;24.60;96.80;;;;;;4852840;29;20069;-79
2022/08/29 09:52:16;;;;;;;0.10;0.10;;;26.80;98.20;;;;;;4845696;29;20061;-78
2022/08/29 09:54:46;;;;;;;0.43;0.38;;;26.00;98.50;;;;;;4898944;23;20068;-79
2022/08/29 09:57:30;;;;;;;0.73;0.73;;;26.60;98.60;;;;;;4904613;29;20020;-79
2022/08/29 10:00:24;;;;;;;0.47;0.47;;;26.10;99.00;;;;;;4887855;29;20040;-79
2022/08/29 10:02:56;;;;;;;0.32;0.32;;;26.50;99.20;;;;;;4874007;29;20037;-81
2022/08/29 10:05:56;;;;;;;0.00;0.00;;;25.40;98.10;;;;;;4871295;29;20081;-82
2022/08/29 10:08:40;;;;;;;0.52;0.52;;;26.80;98.50;;;;;;4890263;29;20052;-85
2022/08/29 10:11:53;;;;;;;0.30;0.30;;;24.10;97.80;;;;;;4863396;29;20029;-92
2022/08/29 10:15:14;;;;;;;0.10;0.10;;;28.10;98.20;;;;;;4834529;29;20047;-80
2022/08/29 10:21:51;;;;;;;;;;;;;;;;;;;;;
2022/08/29 10:24:50;;;;;;;0.65;0.45;;;27.30;97.60;;;;;;4750401;30;20041;-79
2022/08/29 10:28:05;;;;;;;0.00;0.00;;;28.10;97.00;;;;;;4747205;30;20036;-79
2022/08/29 10:31:26;;;;;;;0.20;0.20;;;26.70;96.10;;;;;;4737426;30;20063;-89
2022/08/29 10:34:51;;;;;;;0.10;0.10;;;27.10;96.00;;;;;;4744318;30;20040;-78
2022/08/29 10:37:49;;;;;;;0.00;0.00;;;28.20;96.10;;;;;;4717808;30;20026;-79
2022/08/29 10:40:55;;;;;;;0.47;0.45;;;27.90;95.70;;;;;;4704173;30;20038;-79
2022/08/29 10:44:27;;;;;;;0.10;0.10;;;27.90;96.20;;;;;;4701624;30;20896;-79
2022/08/29 10:47:32;;;;;;;0.00;0.00;;;28.20;94.90;;;;;;4684528;30;20034;-79
2022/08/29 10:54:31;;;;;;;0.55;0.55;;;28.00;94.70;;;;;;4640050;30;20295;-79
2022/08/29 10:58:10;;;;;;;0.22;0.22;;;28.10;94.70;;;;;;4653613;31;20027;-79
2022/08/29 11:01:14;;;;;;;0.40;0.40;;;28.10;94.70;;;;;;4625283;31;20054;-88
2022/08/29 11:03:57;;;;;;;0.03;0.03;;;24.50;92.90;;;;;;4630195;31;20112;-87
2022/08/29 11:06:50;;;;;;;0.10;0.10;;;28.40;93.80;;;;;;4628044;30;20024;-78
2022/08/29 11:09:24;;;;;;;5.72;5.35;;;28.70;94.00;;;;;;4629740;30;20051;-86
2022/08/29 11:12:17;;;;;;;0.10;0.10;;;31.20;94.80;;;;;;4705987;30;20091;-88
2022/08/29 11:15:14;;;;;;;0.55;0.55;;;24.90;91.90;;;;;;4745266;30;20130;-80
2022/08/29 11:18:09;;;;;;;0.82;0.70;;;29.20;92.30;;;;;;4772143;30;20040;-83
2022/08/29 11:21:28;;;;;;;0.05;0.05;;;29.70;92.00;;;;;;4773818;30;20019;-79
2022/08/29 11:23:57;;;;;;;0.20;0.20;;;29.50;91.50;;;;;;4736061;30;20058;-78
2022/08/29 11:26:56;;;;;;;0.03;0.03;;;29.50;91.20;;;;;;4731288;30;20029;-79
2022/08/29 11:29:45;;;;;;;2.40;2.20;;;28.00;90.80;;;;;;4780356;30;20588;-79
2022/08/29 11:32:52;;;;;;;0.90;0.90;;;29.30;91.70;;;;;;4777655;30;20016;-80
2022/08/29 11:36:07;;;;;;;0.00;0.00;;;29.60;92.30;;;;;;4800938;29;20035;-79
2022/08/29 11:38:49;;;;;;;0.30;0.30;;;27.50;93.10;;;;;;4773431;30;20053;-84
2022/08/29 11:41:31;;;;;;;0.00;0.00;;;27.40;94.00;;;;;;4785254;29;20027;-80
2022/08/29 11:44:28;;;;;;;0.90;0.65;;;27.50;94.10;;;;;;4810931;29;20034;-77
2022/08/29 11:46:55;;;;;;;0.00;0.00;;;27.20;94.10;;;;;;4816018;29;20047;-79
2022/08/29 11:49:37;;;;;;;0.30;0.30;;;27.50;94.80;;;;;;4819109;29;20023;-86
2022/08/29 11:52:29;;;;;;;0.70;0.70;;;27.20;94.70;;;;;;4812364;29;20035;-79
2022/08/29 11:55:41;;;;;;;0.10;0.10;;;26.60;94.90;;;;;;4823440;29;20042;-78
2022/08/29 11:58:54;;;;;;;0.00;0.00;;;27.50;95.00;;;;;;4834622;29;20038;-79
2022/08/29 12:01:41;;;;;;;0.10;0.10;;;28.30;94.40;;;;;;4803993;29;20137;-79
2022/08/29 12:04:31;;;;;;;1.20;0.52;;;29.20;93.30;;;;;;4779899;30;20039;-79
2022/08/29 12:07:07;;;;;;;2.63;1.05;;;30.60;92.70;;;;;;4781966;30;20031;-92
2022/08/29 12:12:11;;;;;;;0.30;0.30;;;32.40;86.80;;;;;;1194065;27;20044;-78
2022/08/29 12:15:10;;;;;;;0.20;0.20;;;32.90;88.30;;;;;;4909235;29;20163;-90
2022/08/29 12:18:24;;;;;;;0.08;0.08;;;30.90;82.30;;;;;;4930259;29;20031;-83
2022/08/29 12:21:04;;;;;;;1.30;1.20;;;33.60;84.50;;;;;;4928087;29;20036;-80
2022/08/29 12:23:51;;;;;;;0.22;0.22;;;32.90;80.80;;;;;;4905212;29;20031;-80
2022/08/29 12:26:53;;;;;;;0.65;0.43;;;32.60;82.10;;;;;;4898810;29;20028;-84
2022/08/29 12:29:45;;;;;;;0.17;0.17;;;32.70;82.30;;;;;;4910408;29;20036;-79
2022/08/29 12:32:41;;;;;;;0.13;0.13;;;32.10;83.20;;;;;;4912136;29;20031;-90
2022/08/29 12:36:05;;;;;;;0.00;0.00;;;27.90;80.50;;;;;;4922680;29;20039;-79
2022/08/29 12:38:59;;;;;;;;;;;30.30;82.10;;;;;;4920101;29;20036;-81
2022/08/29 12:41:47;;;;;;;0.10;0.10;;;30.10;78.40;;;;;;4878777;29;19915;-83
2022/08/29 12:44:43;;;;;;;0.00;0.00;;;30.20;80.40;;;;;;4875144;29;20033;-88
2022/08/29 12:47:40;;;;;;;0.20;0.20;;;29.50;77.90;;;;;;4849193;29;20069;-79
2022/08/29 12:50:42;;;;;;;;;;;;;;;;;;;;;
2022/08/29 12:53:22;;;;;;;3.30;3.10;;;27.60;79.30;;;;;;4884573;29;20678;-79
2022/08/29 12:56:31;;;;;;;0.20;0.20;;;28.30;78.80;;;;;;4877378;29;20036;-80
2022/08/29 12:59:42;;;;;;;0.05;0.05;;;26.30;80.80;;;;;;4858348;29;20152;-78
2022/08/29 13:02:30;;;;;;;0.13;0.13;;;27.60;83.40;;;;;;4837425;29;20098;-83
2022/08/29 13:05:05;;;;;;;1.10;0.73;;;26.90;87.00;;;;;;4823326;29;20838;-80
2022/08/29 13:07:35;;;;;;;0.35;0.35;;;26.80;87.40;;;;;;4830993;29;20038;-78
2022/08/29 13:10:06;;;;;;;0.10;0.10;;;;;;;;;;4826624;29;20046;-88
2022/08/29 13:12:34;;;;;;;0.20;0.20;;;26.40;90.70;;;;;;4828250;29;20176;-87
2022/08/29 13:15:16;;;;;;;0.00;0.00;;;26.10;94.60;;;;;;4827528;29;20243;-79
2022/08/29 13:17:45;;;;;;;0.10;0.10;;;25.20;95.90;;;;;;4818972;29;20026;-93
2022/08/29 13:20:59;;;;;;;0.10;0.10;;;25.20;96.70;;;;;;4834431;29;20042;-78
2022/08/29 13:23:38;;;;;;;0.00;0.00;;;20.60;96.40;;;;;;4851680;29;20120;-82
2022/08/29 13:26:09;;;;;;;0.10;0.10;;;23.80;99.50;;;;;;4846122;29;20030;-86
2022/08/29 13:28:54;;;;;;;0.10;0.10;;;23.20;99.90;;;;;;4846190;29;20120;-80
2022/08/29 13:31:20;;;;;;;0.03;0.03;;;;;;;;;;4850391;29;20065;-88
2022/08/29 13:36:39;;;;;;;0.40;0.40;;;22.70;99.90;;;;;;2808239;23;20056;-94
2022/08/29 13:39:34;;;;;;;0.10;0.10;;;23.20;99.90;;;;;;4914939;29;20032;-87
2022/08/29 13:45:32;;;;;;;0.10;0.10;;;22.40;99.90;;;;;;4918544;29;20036;-79
2022/08/29 13:51:27;;;;;;;0.10;0.10;;;22.70;99.90;;;;;;4917025;29;20055;-79
2022/08/29 13:53:56;;;;;;;0.03;0.03;;;;;;;;;;4908472;29;20017;-79
2022/08/29 13:56:45;;;;;;;0.10;0.10;;;20.50;99.90;;;;;;4913647;29;20028;-79
2022/08/29 13:59:11;;;;;;;1.65;1.55;;;22.30;99.90;;;;;;4877853;29;20116;-79
2022/08/29 14:01:45;;;;;;;0.10;0.10;;;21.60;99.90;;;;;;4903187;29;20052;-79
2022/08/29 14:04:34;;;;;;;0.20;0.20;;;21.60;99.90;;;;;;4904175;29;20052;-79
2022/08/29 14:07:24;;;;;;;0.00;0.00;;;23.50;99.90;;;;;;4906212;29;20069;-89
2022/08/29 14:10:11;;;;;;;0.00;0.00;;;21.20;99.90;;;;;;4903695;29;20299;-79
2022/08/29 14:12:46;;;;;;;0.20;0.20;;;21.30;99.90;;;;;;4885261;29;20075;-84
2022/08/29 14:15:26;;;;;;;0.10;0.10;;;17.60;99.90;;;;;;4890624;29;20037;-88
2022/08/29 14:18:00;;;;;;;0.20;0.20;;;20.70;99.90;;;;;;4898986;29;20084;-77
2022/08/29 14:20:56;;;;;;;0.00;0.00;;;22.30;99.90;;;;;;4898245;29;20088;-81
2022/08/29 14:23:30;;;;;;;0.22;0.22;;;20.30;99.90;;;;;;4835941;29;20041;-78
2022/08/29 14:26:26;;;;;;;0.10;0.10;;;20.50;99.90;;;;;;4833378;29;20030;-79
2022/08/29 14:28:55;;;;;;;0.00;0.00;;;22.80;99.90;;;;;;4853891;29;20041;-83
2022/08/29 14:31:23;;;;;;;0.40;0.40;;;20.00;99.90;;;;;;4849133;29;20093;-77
2022/08/29 14:33:56;;;;;;;0.22;0.22;;;19.80;99.90;;;;;;4866682;29;20703;-78
2022/08/29 14:37:00;;;;;;;0.00;0.00;;;20.10;99.90;;;;;;4856039;29;20153;-76
2022/08/29 14:39:34;;;;;;;0.00;0.00;;;19.70;99.90;;;;;;4782030;30;20070;-77
2022/08/29 14:42:05;;;;;;;0.10;0.10;;;19.70;99.90;;;;;;4772068;30;20098;-77
2022/08/29 14:45:09;;;;;;;1.75;1.65;;;19.70;99.90;;;;;;4766594;30;20138;-77
2022/08/29 14:47:46;;;;;;;0.15;0.15;;;19.70;99.90;;;;;;4786052;30;20056;-78
2022/08/29 14:50:13;;;;;;;0.05;0.05;;;19.80;99.90;;;;;;4787262;30;20044;-77